createdAt,value
2018-07-16T00:00:28.810Z,98787.81
2018-07-16T00:02:57.872Z,98786.72
2018-07-16T00:05:26.955Z,98787.84
2018-07-16T00:07:55.993Z,98790.30
2018-07-16T00:10:25.046Z,98786.78
2018-07-16T00:12:54.222Z,98786.94
2018-07-16T00:15:23.254Z,98795.41
2018-07-16T00:17:52.314Z,98784.98
2018-07-16T00:20:21.357Z,98789.88
2018-07-16T00:22:50.441Z,98793.91
2018-07-16T00:25:19.469Z,98792.98
2018-07-16T00:27:48.546Z,98795.30
2018-07-16T00:30:17.625Z,98791.20
2018-07-16T00:32:46.703Z,98791.86
2018-07-16T00:35:15.777Z,98791.56
2018-07-16T00:37:44.819Z,98791.02
2018-07-16T00:40:14.102Z,98798.88
2018-07-16T00:42:43.177Z,98800.68
2018-07-16T00:45:12.608Z,98796.97
2018-07-16T00:47:41.878Z,98798.55
2018-07-16T00:50:10.952Z,98798.09
2018-07-16T00:52:40.076Z,98805.63
2018-07-16T00:55:09.091Z,98810.66
2018-07-16T00:57:38.168Z,98809.16
2018-07-16T01:00:07.595Z,98809.27
2018-07-16T01:02:36.721Z,98813.22
2018-07-16T01:05:05.981Z,98817.63
2018-07-16T01:07:34.977Z,98822.31
2018-07-16T01:10:04.074Z,98821.91
2018-07-16T01:12:33.580Z,98815.44
2018-07-16T01:15:02.634Z,98813.95
2018-07-16T01:17:31.820Z,98808.05
2018-07-16T01:20:00.953Z,98806.30
2018-07-16T01:22:30.005Z,98804.83
2018-07-16T01:24:59.137Z,98800.91
2018-07-16T01:27:28.150Z,98798.23
2018-07-16T01:29:57.247Z,98792.16
2018-07-16T01:32:26.869Z,98793.02
2018-07-16T01:34:55.934Z,98791.06
2018-07-16T01:37:25.031Z,98785.00
2018-07-16T01:39:54.106Z,98784.73
2018-07-16T01:42:23.180Z,98787.88
2018-07-16T01:44:52.228Z,98784.84
2018-07-16T01:47:21.283Z,98780.25
2018-07-16T01:49:50.383Z,98778.44
2018-07-16T01:52:19.457Z,98781.53
2018-07-16T01:54:48.542Z,98779.58
2018-07-16T01:57:17.587Z,98777.98
2018-07-16T01:59:46.689Z,98781.78
2018-07-16T02:02:15.770Z,98782.79
2018-07-16T02:04:44.808Z,98787.20
2018-07-16T02:07:13.860Z,98783.98
2018-07-16T02:09:42.969Z,98792.70
2018-07-16T02:12:12.282Z,98789.08
2018-07-16T02:14:41.306Z,98794.57
2018-07-16T02:17:10.733Z,98789.22
2018-07-16T02:19:39.775Z,98788.28
2018-07-16T02:22:09.081Z,98787.89
2018-07-16T02:24:38.110Z,98781.86
2018-07-16T02:27:07.267Z,98783.89
2018-07-16T02:29:36.314Z,98781.22
2018-07-16T02:32:05.466Z,98777.39
2018-07-16T02:34:34.499Z,98775.25
2018-07-16T02:37:03.583Z,98777.68
2018-07-16T02:39:32.751Z,98774.94
2018-07-16T02:42:01.818Z,98766.69
2018-07-16T02:44:30.860Z,98770.84
2018-07-16T02:47:00.079Z,98772.51
2018-07-16T02:49:29.146Z,98772.66
2018-07-16T02:51:58.235Z,98779.19
2018-07-16T02:54:27.289Z,98775.25
2018-07-16T02:56:56.730Z,98774.86
2018-07-16T02:59:25.803Z,98774.31
2018-07-16T03:01:54.835Z,98780.82
2018-07-16T03:04:23.905Z,98777.99
2018-07-16T03:06:52.978Z,98780.13
2018-07-16T03:09:22.101Z,98779.34
2018-07-16T03:11:51.149Z,98775.00
2018-07-16T03:14:20.258Z,98775.80
2018-07-16T03:16:49.290Z,98771.31
2018-07-16T03:19:18.391Z,98768.25
2018-07-16T03:21:47.439Z,98771.32
2018-07-16T03:24:16.489Z,98773.77
2018-07-16T03:26:45.533Z,98771.57
2018-07-16T03:29:14.727Z,98769.91
2018-07-16T03:31:43.758Z,98767.30
2018-07-16T03:34:12.820Z,98764.78
2018-07-16T03:36:41.896Z,98762.03
2018-07-16T03:39:11.252Z,98759.67
2018-07-16T03:41:40.500Z,98763.77
2018-07-16T03:44:09.561Z,98754.00
2018-07-16T03:46:38.637Z,98754.80
2018-07-16T03:49:07.941Z,98754.18
2018-07-16T03:51:37.081Z,98751.72
2018-07-16T03:54:06.351Z,98748.91
2018-07-16T03:56:35.610Z,98748.73
2018-07-16T03:59:05.281Z,98748.92
2018-07-16T04:01:34.413Z,98739.78
2018-07-16T04:04:04.469Z,98743.32
2018-07-16T04:06:33.545Z,98743.79
2018-07-16T04:09:04.093Z,98736.02
2018-07-16T04:11:33.662Z,98604.03
2018-07-16T04:14:02.700Z,98737.89
2018-07-16T04:16:31.770Z,98612.87
2018-07-16T04:19:00.846Z,98739.86
2018-07-16T04:21:29.911Z,98737.42
2018-07-16T04:23:59.026Z,98740.64
2018-07-16T04:26:28.394Z,98744.75
2018-07-16T04:28:57.448Z,98743.67
2018-07-16T04:31:26.495Z,98740.98
2018-07-16T04:33:55.548Z,98743.66
2018-07-16T04:36:24.647Z,98746.48
2018-07-16T04:38:53.781Z,98750.89
2018-07-16T04:41:22.817Z,98749.23
2018-07-16T04:43:51.905Z,98751.03
2018-07-16T04:46:21.305Z,98749.55
2018-07-16T04:48:50.337Z,98742.86
2018-07-16T04:51:19.387Z,98746.72
2018-07-16T04:53:48.461Z,98745.62
2018-07-16T04:56:17.550Z,98754.94
2018-07-16T04:58:46.624Z,98751.33
2018-07-16T05:01:15.741Z,98759.28
2018-07-16T05:03:44.822Z,98751.87
2018-07-16T05:06:13.857Z,98754.56
2018-07-16T05:08:42.925Z,98756.22
2018-07-16T05:11:11.977Z,98756.30
2018-07-16T05:13:41.138Z,98757.48
2018-07-16T05:16:10.202Z,98598.64
2018-07-16T05:18:39.338Z,98763.84
2018-07-16T05:21:08.444Z,98762.58
2018-07-16T05:23:37.478Z,98765.72
2018-07-16T05:26:06.533Z,98764.09
2018-07-16T05:28:35.631Z,98760.30
2018-07-16T05:31:04.835Z,98757.25
2018-07-16T05:33:33.962Z,98759.98
2018-07-16T05:36:05.963Z,98758.40
2018-07-16T05:38:35.097Z,98766.07
2018-07-16T05:41:04.472Z,98768.55
2018-07-16T05:43:33.532Z,98766.98
2018-07-16T05:46:02.563Z,98761.68
2018-07-16T05:48:31.651Z,98766.07
2018-07-16T05:51:02.495Z,98761.27
2018-07-16T05:53:31.610Z,98755.88
2018-07-16T05:56:00.749Z,98751.66
2018-07-16T05:58:29.937Z,98754.88
2018-07-16T06:01:00.057Z,98751.52
2018-07-16T06:03:29.174Z,98753.80
2018-07-16T06:05:58.281Z,98173.02
2018-07-16T06:08:27.969Z,98758.27
2018-07-16T06:10:57.278Z,98759.91
2018-07-16T06:13:26.352Z,98761.63
2018-07-16T06:15:55.565Z,98757.15
2018-07-16T06:18:24.586Z,98767.14
2018-07-16T06:20:53.929Z,98755.33
2018-07-16T06:23:23.162Z,98759.91
2018-07-16T06:25:52.288Z,98760.30
2018-07-16T06:28:21.543Z,98766.66
2018-07-16T06:30:50.608Z,98767.20
2018-07-16T06:33:20.037Z,98760.91
2018-07-16T06:35:49.170Z,98759.11
2018-07-16T06:38:18.906Z,98763.25
2018-07-16T06:40:48.303Z,98756.33
2018-07-16T06:43:17.161Z,98764.02
2018-07-16T06:45:46.271Z,98769.59
2018-07-16T06:48:15.527Z,98765.31
2018-07-16T06:50:44.571Z,98765.13
2018-07-16T06:53:13.706Z,98761.52
2018-07-16T06:55:42.789Z,98759.67
2018-07-16T06:58:12.219Z,98763.50
2018-07-16T07:00:41.342Z,98756.74
2018-07-16T07:03:10.683Z,98762.17
2018-07-16T07:05:40.041Z,98758.28
2018-07-16T07:08:10.138Z,98757.13
2018-07-16T07:10:39.239Z,98754.60
2018-07-16T07:13:08.408Z,98755.86
2018-07-16T07:15:37.779Z,98752.45
2018-07-16T07:18:07.109Z,98750.02
2018-07-16T07:20:36.220Z,98750.66
2018-07-16T07:23:05.682Z,98751.91
2018-07-16T07:25:35.905Z,98744.09
2018-07-16T07:28:05.104Z,98735.36
2018-07-16T07:30:34.223Z,98737.18
2018-07-16T07:33:03.321Z,98735.45
2018-07-16T07:35:32.711Z,98732.08
2018-07-16T07:38:01.754Z,98740.26
2018-07-16T07:40:30.870Z,98736.78
2018-07-16T07:43:00.009Z,98733.41
2018-07-16T07:45:29.087Z,98731.41
2018-07-16T07:47:58.175Z,98735.53
2018-07-16T07:50:27.355Z,98727.92
2018-07-16T07:52:56.453Z,98738.97
2018-07-16T07:55:26.807Z,98727.87
2018-07-16T07:57:55.978Z,98728.64
2018-07-16T08:00:25.147Z,98727.91
2018-07-16T08:02:54.285Z,98724.05
2018-07-16T08:05:34.890Z,98717.26
2018-07-16T08:08:07.469Z,98716.22
2018-07-16T08:10:37.623Z,98713.69
2018-07-16T08:13:07.568Z,98717.38
2018-07-16T08:15:40.788Z,98713.17
2018-07-16T08:18:10.277Z,98711.86
2018-07-16T08:20:39.529Z,98716.45
2018-07-16T08:23:08.947Z,98716.20
2018-07-16T08:25:38.096Z,98713.86
2018-07-16T08:28:07.192Z,98715.31
2018-07-16T08:30:36.575Z,98707.58
2018-07-16T08:33:05.678Z,98709.00
2018-07-16T08:35:34.760Z,98707.47
2018-07-16T08:38:04.036Z,98713.80
2018-07-16T08:40:33.143Z,98715.38
2018-07-16T08:43:02.211Z,98712.39
2018-07-16T08:45:31.292Z,98713.91
2018-07-16T08:48:00.494Z,98713.55
2018-07-16T08:50:40.784Z,98716.14
2018-07-16T08:53:28.320Z,98710.47
2018-07-16T08:55:58.425Z,98710.77
2018-07-16T08:58:27.773Z,98709.64
2018-07-16T09:00:56.959Z,98711.23
2018-07-16T09:03:26.115Z,98702.18
2018-07-16T09:06:00.673Z,98701.25
2018-07-16T09:08:30.255Z,98698.23
2018-07-16T09:10:59.382Z,98698.73
2018-07-16T09:13:28.745Z,98704.14
2018-07-16T09:15:58.277Z,98699.95
2018-07-16T09:18:27.410Z,98700.60
2018-07-16T09:20:56.481Z,98694.02
2018-07-16T09:23:25.655Z,98696.05
2018-07-16T09:25:54.738Z,98691.30
2018-07-16T09:28:23.807Z,98686.73
2018-07-16T09:30:52.880Z,98685.81
2018-07-16T09:33:21.957Z,98681.86
2018-07-16T09:35:51.087Z,98683.55
2018-07-16T09:38:21.102Z,98680.39
2018-07-16T09:40:50.237Z,98677.80
2018-07-16T09:43:19.344Z,98670.13
2018-07-16T09:45:48.493Z,98674.07
2018-07-16T09:48:17.730Z,98674.91
2018-07-16T09:50:46.753Z,98674.76
2018-07-16T09:53:15.787Z,98669.19
2018-07-16T09:55:45.674Z,98670.52
2018-07-16T09:58:14.769Z,98674.56
2018-07-16T10:00:49.837Z,98677.15
2018-07-16T10:03:19.028Z,98673.28
2018-07-16T10:05:48.445Z,98667.00
2018-07-16T10:08:17.547Z,98662.39
2018-07-16T10:10:46.886Z,98662.77
2018-07-16T10:13:16.099Z,98654.23
2018-07-16T10:15:45.873Z,98653.27
2018-07-16T10:18:15.021Z,98653.48
2018-07-16T10:20:44.181Z,98650.55
2018-07-16T10:23:13.262Z,98646.09
2018-07-16T10:25:42.347Z,98647.36
2018-07-16T10:28:11.459Z,98641.94
2018-07-16T10:30:41.155Z,98639.63
2018-07-16T10:33:10.357Z,98638.44
2018-07-16T10:35:39.458Z,98639.63
2018-07-16T10:38:08.653Z,98638.24
2018-07-16T10:40:37.721Z,98635.96
2018-07-16T10:43:06.832Z,98635.88
2018-07-16T10:45:35.878Z,98634.02
2018-07-16T10:48:05.219Z,98638.80
2018-07-16T10:50:34.330Z,98607.27
2018-07-16T10:53:03.627Z,98629.56
2018-07-16T10:55:32.775Z,98632.28
2018-07-16T10:58:01.858Z,98634.13
2018-07-16T11:00:31.252Z,98643.88
2018-07-16T11:03:00.468Z,98636.02
2018-07-16T11:05:29.588Z,98634.86
2018-07-16T11:07:58.618Z,98632.56
2018-07-16T11:10:27.701Z,98630.05
2018-07-16T11:12:57.594Z,98635.70
2018-07-16T11:15:26.702Z,98628.92
2018-07-16T11:17:56.293Z,98635.09
2018-07-16T11:20:25.678Z,98628.12
2018-07-16T11:22:54.753Z,98623.31
2018-07-16T11:25:23.901Z,98626.40
2018-07-16T11:27:53.042Z,98619.56
2018-07-16T11:30:22.241Z,98623.68
2018-07-16T11:32:51.246Z,98617.91
2018-07-16T11:35:20.375Z,98616.30
2018-07-16T11:37:49.395Z,98609.52
2018-07-16T11:40:18.577Z,98604.09
2018-07-16T11:42:47.699Z,98599.62
2018-07-16T11:45:16.780Z,98589.89
2018-07-16T11:47:45.877Z,98592.19
2018-07-16T11:50:14.979Z,98589.17
2018-07-16T11:52:44.122Z,98583.30
2018-07-16T11:55:13.211Z,98585.77
2018-07-16T11:57:42.212Z,98591.13
2018-07-16T12:00:11.286Z,98583.12
2018-07-16T12:02:40.402Z,98573.85
2018-07-16T12:05:09.606Z,98566.43
2018-07-16T12:07:38.638Z,98566.58
2018-07-16T12:10:07.769Z,98574.34
2018-07-16T12:12:36.983Z,98569.11
2018-07-16T12:15:06.734Z,98558.98
2018-07-16T12:17:36.274Z,98556.44
2018-07-16T12:20:06.073Z,98551.94
2018-07-16T12:22:35.145Z,98548.55
2018-07-16T12:25:04.377Z,98545.27
2018-07-16T12:27:33.520Z,98539.77
2018-07-16T12:30:02.662Z,98536.94
2018-07-16T12:32:31.861Z,98539.56
2018-07-16T12:35:00.971Z,98531.58
2018-07-16T12:37:30.057Z,98537.73
2018-07-16T12:39:59.142Z,98535.14
2018-07-16T12:42:28.347Z,98529.55
2018-07-16T12:44:57.431Z,98533.58
2018-07-16T12:47:26.556Z,98524.94
2018-07-16T12:49:55.747Z,98519.59
2018-07-16T12:52:25.433Z,98517.00
2018-07-16T12:54:54.639Z,98512.98
2018-07-16T12:57:23.834Z,98513.98
2018-07-16T12:59:52.954Z,98504.16
2018-07-16T13:02:22.299Z,98502.58
2018-07-16T13:04:51.436Z,98502.33
2018-07-16T13:07:20.559Z,98493.75
2018-07-16T13:09:49.630Z,98491.85
2018-07-16T13:12:18.750Z,98480.31
2018-07-16T13:14:48.487Z,98485.75
2018-07-16T13:17:17.810Z,98488.20
2018-07-16T13:19:46.876Z,98485.05
2018-07-16T13:22:16.050Z,98497.36
2018-07-16T13:24:45.138Z,98487.97
2018-07-16T13:27:14.212Z,98490.48
2018-07-16T13:29:43.411Z,98489.33
2018-07-16T13:32:12.909Z,98487.86
2018-07-16T13:34:42.018Z,98495.55
2018-07-16T13:37:11.124Z,98495.19
2018-07-16T13:39:40.227Z,98493.06
2018-07-16T13:42:09.478Z,98492.08
2018-07-16T13:44:38.675Z,98485.64
2018-07-16T13:47:07.756Z,98492.34
2018-07-16T13:49:36.797Z,98479.05
2018-07-16T13:52:06.815Z,98480.23
2018-07-16T13:54:35.895Z,98482.51
2018-07-16T13:57:05.043Z,98483.80
2018-07-16T13:59:34.742Z,98479.80
2018-07-16T14:02:03.837Z,98470.86
2018-07-16T14:04:33.183Z,98469.59
2018-07-16T14:07:02.278Z,98464.17
2018-07-16T14:09:31.430Z,98475.19
2018-07-16T14:12:00.503Z,98468.22
2018-07-16T14:14:30.410Z,98465.41
2018-07-16T14:16:59.523Z,98464.36
2018-07-16T14:19:29.400Z,98453.73
2018-07-16T14:21:58.818Z,98460.23
2018-07-16T14:24:27.838Z,98461.05
2018-07-16T14:26:56.999Z,98453.37
2018-07-16T14:29:26.179Z,98454.65
2018-07-16T14:31:55.284Z,98457.72
2018-07-16T14:34:25.183Z,98453.70
2018-07-16T14:36:54.292Z,98455.69
2018-07-16T14:39:23.429Z,98459.83
2018-07-16T14:41:52.724Z,98457.67
2018-07-16T14:44:22.256Z,98451.69
2018-07-16T14:46:52.145Z,98444.17
2018-07-16T14:49:21.205Z,98460.49
2018-07-16T14:51:50.483Z,98469.26
2018-07-16T14:54:19.616Z,98465.61
2018-07-16T14:56:48.781Z,98472.12
2018-07-16T14:59:17.925Z,98475.54
2018-07-16T15:01:47.115Z,98472.83
2018-07-16T15:04:17.166Z,98474.98
2018-07-16T15:06:46.323Z,98461.95
2018-07-16T15:09:15.542Z,98464.88
2018-07-16T15:11:45.105Z,98453.63
2018-07-16T15:14:16.461Z,98466.43
2018-07-16T15:16:45.578Z,98463.13
2018-07-16T15:19:17.693Z,98470.21
2018-07-16T15:21:48.683Z,98467.88
2018-07-16T15:24:17.756Z,98466.66
2018-07-16T15:26:46.894Z,98462.23
2018-07-16T15:29:16.052Z,98464.96
2018-07-16T15:31:45.297Z,98464.20
2018-07-16T15:34:14.391Z,98455.06
2018-07-16T15:36:43.882Z,98452.73
2018-07-16T15:39:12.972Z,98446.97
2018-07-16T15:41:43.807Z,98426.62
2018-07-16T15:44:13.069Z,98448.55
2018-07-16T15:46:42.153Z,98441.09
2018-07-16T15:49:11.442Z,98441.09
2018-07-16T15:51:41.625Z,98437.13
2018-07-16T15:54:10.764Z,98447.81
2018-07-16T15:56:51.436Z,98448.74
2018-07-16T15:59:20.789Z,98456.13
2018-07-16T16:01:51.898Z,98465.42
2018-07-16T16:04:21.049Z,98474.11
2018-07-16T16:06:50.807Z,98472.05
2018-07-16T16:09:19.985Z,98481.96
2018-07-16T16:11:49.301Z,98481.73
2018-07-16T16:14:18.949Z,97943.75
2018-07-16T16:16:48.198Z,98472.84
2018-07-16T16:19:17.314Z,98475.88
2018-07-16T16:21:47.173Z,98470.58
2018-07-16T16:24:16.445Z,98373.34
2018-07-16T16:26:45.611Z,98470.65
2018-07-16T16:29:14.763Z,98457.49
2018-07-16T16:31:43.817Z,98460.17
2018-07-16T16:34:12.939Z,98459.94
2018-07-16T16:36:42.085Z,98459.79
2018-07-16T16:39:16.748Z,98468.52
2018-07-16T16:41:51.460Z,98473.56
2018-07-16T16:44:29.969Z,98467.68
2018-07-16T16:46:59.793Z,98466.30
2018-07-16T16:49:28.941Z,98471.16
2018-07-16T16:51:59.324Z,98464.60
2018-07-16T16:54:28.609Z,98465.52
2018-07-16T16:56:57.810Z,98468.67
2018-07-16T16:59:27.038Z,98470.92
2018-07-16T17:01:56.248Z,98467.08
2018-07-16T17:04:25.405Z,98472.80
2018-07-16T17:06:54.413Z,98471.22
2018-07-16T17:09:23.538Z,98400.38
2018-07-16T17:11:52.957Z,98459.41
2018-07-16T17:14:22.197Z,98461.27
2018-07-16T17:16:51.334Z,98461.36
2018-07-16T17:19:21.132Z,98461.02
2018-07-16T17:21:50.330Z,98462.12
2018-07-16T17:24:19.554Z,98456.11
2018-07-16T17:26:48.647Z,98457.36
2018-07-16T17:29:17.799Z,98454.20
2018-07-16T17:31:47.073Z,98455.03
2018-07-16T17:34:16.186Z,98452.44
2018-07-16T17:36:46.269Z,98459.26
2018-07-16T17:39:16.078Z,98448.51
2018-07-16T17:41:45.111Z,98449.84
2018-07-16T17:44:14.319Z,98449.57
2018-07-16T17:46:43.434Z,98445.66
2018-07-16T17:49:12.490Z,98450.58
2018-07-16T17:51:41.570Z,98453.09
2018-07-16T17:54:10.913Z,98455.30
2018-07-16T17:56:40.019Z,98455.94
2018-07-16T17:59:09.164Z,98449.13
2018-07-16T18:01:38.333Z,98457.91
2018-07-16T18:04:11.438Z,98449.23
2018-07-16T18:06:41.738Z,98461.14
2018-07-16T18:09:10.829Z,98459.80
2018-07-16T18:11:39.921Z,98455.89
2018-07-16T18:14:09.044Z,98460.18
2018-07-16T18:16:38.173Z,98460.73
2018-07-16T18:19:07.217Z,98464.41
2018-07-16T18:21:36.330Z,98460.91
2018-07-16T18:24:05.394Z,98464.87
2018-07-16T18:26:34.561Z,98456.94
2018-07-16T18:29:03.644Z,98464.53
2018-07-16T18:31:32.883Z,98464.14
2018-07-16T18:34:01.998Z,98466.69
2018-07-16T18:36:31.131Z,98443.01
2018-07-16T18:39:04.562Z,98471.52
2018-07-16T18:41:40.106Z,98466.85
2018-07-16T18:44:09.603Z,98471.58
2018-07-16T18:46:57.651Z,98471.79
2018-07-16T18:49:29.186Z,98469.69
2018-07-16T18:51:59.336Z,98475.14
2018-07-16T18:54:28.417Z,98479.05
2018-07-16T18:56:57.529Z,98482.51
2018-07-16T18:59:27.358Z,98482.92
2018-07-16T19:01:56.398Z,98487.97
2018-07-16T19:04:25.556Z,98492.81
2018-07-16T19:06:55.887Z,98489.91
2018-07-16T19:09:25.553Z,98488.75
2018-07-16T19:11:55.089Z,98487.20
2018-07-16T19:14:24.416Z,98496.45
2018-07-16T19:16:53.570Z,98500.33
2018-07-16T19:19:23.695Z,98503.23
2018-07-16T19:21:53.596Z,98508.40
2018-07-16T19:24:23.006Z,98510.33
2018-07-16T19:26:52.040Z,98507.34
2018-07-16T19:29:21.257Z,98513.12
2018-07-16T19:31:50.959Z,98511.38
2018-07-16T19:34:20.030Z,98492.16
2018-07-16T19:36:49.242Z,98512.73
2018-07-16T19:39:18.410Z,98514.26
2018-07-16T19:41:47.551Z,98518.06
2018-07-16T19:44:16.653Z,98524.16
2018-07-16T19:46:45.691Z,98526.42
2018-07-16T19:49:14.858Z,98525.86
2018-07-16T19:51:44.062Z,98525.75
2018-07-16T19:54:13.460Z,98525.25
2018-07-16T19:56:42.525Z,98522.47
2018-07-16T19:59:11.632Z,98530.45
2018-07-16T20:01:40.829Z,97937.45
2018-07-16T20:04:09.983Z,98530.56
2018-07-16T20:06:39.041Z,98543.54
2018-07-16T20:09:08.137Z,98540.26
2018-07-16T20:11:37.291Z,98545.25
2018-07-16T20:14:06.859Z,98514.86
2018-07-16T20:16:42.463Z,98552.70
2018-07-16T20:19:12.255Z,98556.08
2018-07-16T20:21:41.365Z,98563.58
2018-07-16T20:24:10.430Z,98562.84
2018-07-16T20:26:39.510Z,98562.06
2018-07-16T20:29:08.550Z,98571.48
2018-07-16T20:31:37.740Z,98576.42
2018-07-16T20:34:06.961Z,98578.88
2018-07-16T20:36:36.474Z,98583.47
2018-07-16T20:39:09.285Z,98575.30
2018-07-16T20:41:38.548Z,98585.38
2018-07-16T20:44:08.308Z,98586.73
2018-07-16T20:46:38.054Z,98587.63
2018-07-16T20:49:07.353Z,98588.98
2018-07-16T20:51:38.356Z,98587.02
2018-07-16T20:54:09.692Z,98593.18
2018-07-16T20:56:40.585Z,98592.48
2018-07-16T20:59:09.762Z,98599.61
2018-07-16T21:01:38.907Z,98597.55
2018-07-16T21:04:07.951Z,98596.83
2018-07-16T21:06:37.062Z,98600.39
2018-07-16T21:09:07.807Z,98598.70
2018-07-16T21:11:37.427Z,98606.09
2018-07-16T21:14:06.731Z,98606.46
2018-07-16T21:16:35.827Z,98615.23
2018-07-16T21:19:04.965Z,98611.83
2018-07-16T21:21:34.045Z,98613.77
2018-07-16T21:24:03.388Z,98615.87
2018-07-16T21:26:32.486Z,98615.25
2018-07-16T21:29:01.643Z,98616.92
2018-07-16T21:31:31.043Z,98613.89
2018-07-16T21:34:00.117Z,98613.53
2018-07-16T21:36:29.175Z,98623.55
2018-07-16T21:38:58.356Z,98625.52
2018-07-16T21:41:27.424Z,98632.27
2018-07-16T21:43:56.550Z,98635.71
2018-07-16T21:46:25.594Z,98632.47
2018-07-16T21:48:54.642Z,98622.96
2018-07-16T21:51:23.794Z,98627.51
2018-07-16T21:53:52.867Z,98632.89
2018-07-16T21:56:21.938Z,98635.23
2018-07-16T21:58:51.105Z,98634.56
2018-07-16T22:01:20.207Z,98630.45
2018-07-16T22:03:49.417Z,98627.09
2018-07-16T22:06:18.429Z,98628.42
2018-07-16T22:08:47.510Z,98630.00
2018-07-16T22:11:16.740Z,98636.65
2018-07-16T22:13:45.766Z,98634.95
2018-07-16T22:16:14.906Z,98638.27
2018-07-16T22:18:44.011Z,98636.50
2018-07-16T22:21:13.242Z,98614.27
2018-07-16T22:23:42.302Z,98644.69
2018-07-16T22:26:11.347Z,98643.55
2018-07-16T22:28:40.445Z,98641.65
2018-07-16T22:31:09.584Z,98639.34
2018-07-16T22:33:38.570Z,98641.21
2018-07-16T22:36:07.631Z,98642.13
2018-07-16T22:38:36.937Z,98646.71
2018-07-16T22:41:06.077Z,98647.62
2018-07-16T22:43:35.112Z,98654.27
2018-07-16T22:46:04.163Z,98652.56
2018-07-16T22:48:33.315Z,98649.74
2018-07-16T22:51:02.467Z,98660.38
2018-07-16T22:53:31.573Z,98658.39
2018-07-16T22:56:00.663Z,98661.78
2018-07-16T22:58:29.749Z,98657.55
2018-07-16T23:00:58.828Z,98656.74
2018-07-16T23:03:27.897Z,98661.03
2018-07-16T23:05:57.030Z,98655.91
2018-07-16T23:08:26.629Z,98657.16
2018-07-16T23:10:55.768Z,98662.77
2018-07-16T23:13:25.050Z,98665.44
2018-07-16T23:15:54.104Z,98665.22
2018-07-16T23:18:23.217Z,98664.64
2018-07-16T23:20:52.307Z,98662.06
2018-07-16T23:23:21.419Z,98662.16
2018-07-16T23:25:50.462Z,98668.22
2018-07-16T23:28:19.557Z,98661.51
2018-07-16T23:30:48.776Z,98667.33
2018-07-16T23:33:17.832Z,98666.77
2018-07-16T23:35:46.893Z,98662.74
2018-07-16T23:38:16.013Z,98666.56
2018-07-16T23:40:45.086Z,98668.02
2018-07-16T23:43:14.254Z,98671.12
2018-07-16T23:45:43.739Z,98673.56
2018-07-16T23:48:12.838Z,98677.72
2018-07-16T23:50:41.934Z,98666.09
2018-07-16T23:53:10.982Z,98663.61
2018-07-16T23:55:40.074Z,98665.64
2018-07-16T23:58:09.205Z,98657.02
